Time;durP1;ratioP1;P1;durP2;ratioP2;P2;SDS_P1;SDS_P2;PMS_P1;PMS_P2;Temp;Humidity;BMP_temperature;BMP_pressure;BME280_temperature;BME280_humidity;BME280_pressure;Samples;Min_cycle;Max_cycle;Signal;HPM_P1;HPM_P2
2022/08/12 00:45:07;;;;;;;;;20.67;17.67;;;;;-145.45;100.00;57426.63;5087523;27;45303;-72
2022/08/12 00:47:33;;;;;;;;;21.33;20.00;;;;;-145.45;100.00;57426.63;5090144;27;45451;-73
2022/08/12 00:50:00;;;;;;;;;22.00;20.33;;;;;-145.45;100.00;57426.63;5088117;27;46110;-73
2022/08/12 00:52:26;;;;;;;;;22.33;20.00;;;;;-145.45;100.00;57426.63;5094488;27;45295;-73
2022/08/12 00:55:00;;;;;;;;;19.67;19.67;;;;;-145.45;100.00;57426.63;5087154;27;45831;-73
2022/08/12 00:57:29;;;;;;;;;20.00;19.33;;;;;-145.45;100.00;57426.63;5074763;28;46363;-73
2022/08/12 00:59:56;;;;;;;;;21.33;19.00;;;;;-145.45;100.00;57426.63;5091280;27;46583;-72
2022/08/12 01:02:28;;;;;;;;;22.00;19.33;;;;;-145.45;100.00;57426.63;5087661;27;45341;-72
2022/08/12 01:13:18;;;;;;;;;20.33;18.67;;;;;-145.45;100.00;57426.63;5084766;27;45209;-73
2022/08/12 01:15:45;;;;;;;;;20.33;17.67;;;;;-145.45;100.00;57426.63;5082497;27;45364;-72
2022/08/12 01:18:13;;;;;;;;;19.00;19.00;;;;;-145.45;100.00;57426.63;5084100;27;45418;-72
2022/08/12 01:20:52;;;;;;;;;17.33;16.00;;;;;-145.45;100.00;57426.63;5080969;27;46377;-72
2022/08/12 01:23:40;;;;;;;;;16.33;14.00;;;;;-145.45;100.00;57426.63;5075890;27;45893;-72
2022/08/12 01:26:08;;;;;;;;;19.67;18.00;;;;;-145.45;100.00;57426.63;5092583;27;45304;-72
2022/08/12 01:28:35;;;;;;;;;23.33;20.00;;;;;-145.45;100.00;57426.63;5086562;27;45502;-73
2022/08/12 01:31:03;;;;;;;;;18.67;18.00;;;;;-145.45;100.00;57426.63;5087775;27;45423;-73
2022/08/12 01:33:45;;;;;;;;;18.67;18.67;;;;;-145.45;100.00;57426.63;5094751;27;45463;-73
2022/08/12 01:36:12;;;;;;;;;17.33;15.67;;;;;-145.45;100.00;57426.63;5093131;27;45242;-73
2022/08/12 01:38:42;;;;;;;;;19.00;17.33;;;;;-145.45;100.00;57426.63;5088536;27;45428;-73
2022/08/12 01:41:10;;;;;;;;;19.67;18.33;;;;;-145.45;100.00;57426.63;5087686;27;45358;-72
2022/08/12 01:43:36;;;;;;;;;20.33;18.00;;;;;-145.45;100.00;57426.63;5079454;27;45427;-73
2022/08/12 01:46:06;;;;;;;;;20.00;18.67;;;;;-145.45;100.00;57426.63;5089875;27;45461;-73
2022/08/12 01:48:50;;;;;;;;;20.67;19.67;;;;;-145.45;100.00;57426.63;5086041;27;45529;-73
2022/08/12 01:51:34;;;;;;;;;17.33;17.33;;;;;-145.45;100.00;57426.63;5085874;27;46452;-73
2022/08/12 01:54:05;;;;;;;;;18.33;16.00;;;;;-145.45;100.00;57426.63;5087304;27;45701;-72
2022/08/12 01:57:06;;;;;;;;;18.00;16.67;;;;;-145.45;100.00;57426.63;5066501;27;45429;-73
2022/08/12 02:00:05;;;;;;;;;17.67;16.67;;;;;-145.45;100.00;57426.63;5073914;28;45998;-72
2022/08/12 02:02:59;;;;;;;;;17.00;16.00;;;;;-145.45;100.00;57426.63;5076345;27;45383;-73
2022/08/12 02:11:41;;;;;;;;;21.33;19.67;;;;;-145.45;100.00;57426.63;5092858;27;45552;-72
2022/08/12 02:14:50;;;;;;;;;15.50;15.00;;;;;-145.45;100.00;57426.63;5088234;27;46443;-72
2022/08/12 02:17:40;;;;;;;;;17.67;17.67;;;;;-145.45;100.00;57426.63;5079761;27;45163;-72
2022/08/12 02:20:45;;;;;;;;;20.00;19.67;;;;;-145.45;100.00;57426.63;5093902;27;45328;-72
2022/08/12 02:23:11;;;;;;;;;16.67;16.33;;;;;-145.45;100.00;57426.63;5082718;27;45326;-72
2022/08/12 02:25:43;;;;;;;;;17.00;17.00;;;;;-145.45;100.00;57426.63;5089833;27;45353;-72
2022/08/12 02:28:10;;;;;;;;;19.67;17.67;;;;;-145.45;100.00;57426.63;5083011;27;45224;-72
2022/08/12 02:30:36;;;;;;;;;15.33;15.00;;;;;-145.45;100.00;57426.63;5085836;27;45352;-73
2022/08/12 02:33:03;;;;;;;;;19.00;17.67;;;;;-145.45;100.00;57426.63;5083432;27;45573;-72
2022/08/12 02:35:32;;;;;;;;;16.67;15.00;;;;;-145.45;100.00;57426.63;5088570;27;46255;-72
2022/08/12 02:38:00;;;;;;;;;19.00;16.00;;;;;-145.45;100.00;57426.63;5091628;27;45249;-72
2022/08/12 02:40:28;;;;;;;;;18.67;18.67;;;;;-145.45;100.00;57426.63;5084536;27;45352;-72
2022/08/12 02:43:02;;;;;;;;;19.33;18.33;;;;;-145.45;100.00;57426.63;5071085;27;46751;-72
2022/08/12 02:45:46;;;;;;;;;20.00;18.00;;;;;-145.45;100.00;57426.63;5068770;27;47277;-72
2022/08/12 02:48:17;;;;;;;;;16.67;16.67;;;;;-145.45;100.00;57426.63;5084874;27;45347;-72
2022/08/12 02:50:49;;;;;;;;;19.00;19.00;;;;;-145.45;100.00;57426.63;5082852;27;45444;-72
2022/08/12 02:53:16;;;;;;;;;19.67;18.00;;;;;-145.45;100.00;57426.63;5085132;27;45552;-72
2022/08/12 02:55:44;;;;;;;;;20.00;18.67;;;;;-145.45;100.00;57426.63;5087045;27;45399;-72
2022/08/12 02:58:11;;;;;;;;;19.00;19.00;;;;;-145.45;100.00;57426.63;5084303;27;45328;-72
2022/08/12 03:00:38;;;;;;;;;19.00;18.00;;;;;-145.45;100.00;57426.63;5085673;27;45430;-72
2022/08/12 03:03:09;;;;;;;;;19.67;19.67;;;;;-145.45;100.00;57426.63;5083104;27;45617;-72
2022/08/12 03:05:40;;;;;;;;;18.33;18.33;;;;;-145.45;100.00;57426.63;5083174;27;46702;-73
2022/08/12 03:08:10;;;;;;;;;21.33;18.67;;;;;-145.45;100.00;57426.63;5083197;27;45356;-72
2022/08/12 03:10:40;;;;;;;;;18.00;18.00;;;;;-145.45;100.00;57426.63;5090796;27;45374;-72
2022/08/12 03:13:07;;;;;;;;;21.00;17.33;;;;;-145.45;100.00;57426.63;5083861;27;45503;-72
2022/08/12 03:15:34;;;;;;;;;19.67;19.67;;;;;-145.45;100.00;57426.63;5084606;27;46304;-72
2022/08/12 03:18:13;;;;;;;;;21.00;17.00;;;;;-145.45;100.00;57426.63;5081995;27;45363;-72
2022/08/12 03:20:39;;;;;;;;;19.00;17.67;;;;;-145.45;100.00;57426.63;5085071;27;45371;-72
2022/08/12 03:23:10;;;;;;;;;18.33;17.33;;;;;-145.45;100.00;57426.63;5079616;27;45447;-73
2022/08/12 03:25:38;;;;;;;;;19.67;19.67;;;;;-145.45;100.00;57426.63;5085417;27;45450;-72
2022/08/12 03:28:08;;;;;;;;;19.33;19.33;;;;;-145.45;100.00;57426.63;5080133;27;45368;-72
2022/08/12 03:30:35;;;;;;;;;18.67;16.33;;;;;-145.45;100.00;57426.63;5099925;27;45300;-73
2022/08/12 03:33:01;;;;;;;;;16.33;16.00;;;;;-145.45;100.00;57426.63;5082782;27;45515;-73
2022/08/12 03:35:29;;;;;;;;;17.00;17.00;;;;;-145.45;100.00;57426.63;5098186;27;46420;-73
2022/08/12 03:38:05;;;;;;;;;19.67;16.67;;;;;-145.45;100.00;57426.63;5086874;27;45178;-73
2022/08/12 04:00:24;;;;;;;;;17.67;16.67;;;;;-145.45;100.00;57426.63;5093304;27;45363;-73
2022/08/12 04:02:57;;;;;;;;;16.67;16.67;;;;;-145.45;100.00;57426.63;5097472;27;45521;-73
2022/08/12 04:05:24;;;;;;;;;16.33;16.33;;;;;-145.45;100.00;57426.63;5075552;27;46799;-73
2022/08/12 04:07:51;;;;;;;;;20.33;19.00;;;;;-145.45;100.00;57426.63;5097056;27;46388;-72
2022/08/12 04:10:18;;;;;;;;;19.67;18.67;;;;;-145.45;100.00;57426.63;5084663;27;45488;-72
2022/08/12 04:15:30;;;;;;;;;25.67;19.33;;;;;-145.45;100.00;57426.63;5095609;27;45237;-73
2022/08/12 04:17:57;;;;;;;;;18.33;18.33;;;;;-145.45;100.00;57426.63;5083430;27;45350;-73
2022/08/12 04:20:22;;;;;;;;;21.00;19.00;;;;;-145.45;100.00;57426.63;5089209;27;45366;-73
2022/08/12 04:22:48;;;;;;;;;19.00;17.33;;;;;-145.45;100.00;57426.63;5082111;27;45339;-73
2022/08/12 04:25:13;;;;;;;;;15.67;15.33;;;;;-145.45;100.00;57426.63;5092165;27;45343;-72
2022/08/12 04:27:43;;;;;;;;;17.00;14.33;;;;;-145.45;100.00;57426.63;5081719;27;45340;-73
2022/08/12 04:30:10;;;;;;;;;17.00;17.00;;;;;-145.45;100.00;57426.63;5092990;27;45281;-73
2022/08/12 04:32:35;;;;;;;;;19.33;18.00;;;;;-145.45;100.00;57426.63;5095634;27;45407;-73
2022/08/12 04:35:02;;;;;;;;;17.00;15.67;;;;;-145.45;100.00;57426.63;5080182;27;45611;-74
2022/08/12 04:37:28;;;;;;;;;21.67;19.33;;;;;-145.45;100.00;57426.63;5087560;27;45357;-73
2022/08/12 04:39:54;;;;;;;;;19.33;18.00;;;;;-145.45;100.00;57426.63;5093354;27;45644;-72
2022/08/12 04:42:20;;;;;;;;;19.67;18.00;;;;;-145.45;100.00;57426.63;5088049;27;45327;-73
2022/08/12 04:44:45;;;;;;;;;20.67;19.33;;;;;-145.45;100.00;57426.63;5078266;27;46258;-73
2022/08/12 04:47:15;;;;;;;;;15.67;15.67;;;;;-145.45;100.00;57426.63;5100574;27;45345;-73
2022/08/12 04:49:43;;;;;;;;;19.33;19.33;;;;;-145.45;100.00;57426.63;5078967;27;45470;-73
2022/08/12 04:52:10;;;;;;;;;20.33;19.00;;;;;-145.45;100.00;57426.63;5086421;27;45369;-73
2022/08/12 04:54:36;;;;;;;;;20.00;19.00;;;;;-145.45;100.00;57426.63;5097429;27;45514;-73
2022/08/12 04:57:02;;;;;;;;;24.33;18.67;;;;;-145.45;100.00;57426.63;5081627;27;45431;-73
2022/08/12 04:59:29;;;;;;;;;21.33;20.33;;;;;-145.45;100.00;57426.63;5095662;27;45379;-73
2022/08/12 05:01:56;;;;;;;;;20.67;18.33;;;;;-145.45;100.00;57426.63;5087029;27;45424;-73
2022/08/12 05:04:26;;;;;;;;;20.33;19.00;;;;;-145.45;100.00;57426.63;5087131;27;45454;-73
2022/08/12 05:06:51;;;;;;;;;17.33;17.33;;;;;-145.45;100.00;57426.63;5083759;27;45336;-73
2022/08/12 05:09:18;;;;;;;;;20.33;18.33;;;;;-145.45;100.00;57426.63;5086444;27;45563;-73
2022/08/12 05:11:46;;;;;;;;;22.00;21.00;;;;;-145.45;100.00;57426.63;5083017;27;45424;-73
2022/08/12 05:14:12;;;;;;;;;17.67;16.00;;;;;-145.45;100.00;57426.63;5085174;27;45554;-73
2022/08/12 05:16:38;;;;;;;;;20.00;17.00;;;;;-145.45;100.00;57426.63;5081635;27;46117;-73
2022/08/12 05:19:04;;;;;;;;;19.67;19.67;;;;;-145.45;100.00;57426.63;5091870;27;45652;-73
2022/08/12 05:21:29;;;;;;;;;22.67;19.00;;;;;-145.45;100.00;57426.63;5085696;27;45475;-73
2022/08/12 05:23:54;;;;;;;;;20.33;18.33;;;;;-145.45;100.00;57426.63;5071313;27;45692;-73
2022/08/12 05:26:21;;;;;;;;;22.67;17.33;;;;;-145.45;100.00;57426.63;5100743;27;45318;-73
2022/08/12 05:28:46;;;;;;;;;17.33;16.33;;;;;-145.45;100.00;57426.63;5095121;27;45293;-72
2022/08/12 05:31:12;;;;;;;;;18.33;18.00;;;;;-145.45;100.00;57426.63;5085216;27;46467;-73
2022/08/12 05:33:39;;;;;;;;;18.33;18.33;;;;;-145.45;100.00;57426.63;5077143;27;47204;-73
2022/08/12 05:36:06;;;;;;;;;20.67;18.67;;;;;-145.45;100.00;57426.63;5089414;27;45226;-73
2022/08/12 05:41:19;;;;;;;;;16.33;16.33;;;;;-145.45;100.00;57426.63;5092086;27;45521;-73
2022/08/12 05:43:55;;;;;;;;;19.67;18.67;;;;;-145.45;100.00;57426.63;5089954;27;45725;-73
2022/08/12 05:46:22;;;;;;;;;15.00;15.00;;;;;-145.45;100.00;57426.63;5087190;27;46372;-73
2022/08/12 05:48:50;;;;;;;;;22.00;17.67;;;;;-145.45;100.00;57426.63;5085854;27;45533;-73
2022/08/12 05:51:16;;;;;;;;;17.00;16.33;;;;;-145.45;100.00;57426.63;5079523;27;45360;-73
2022/08/12 05:53:42;;;;;;;;;17.67;17.00;;;;;-145.45;100.00;57426.63;5084834;27;45981;-73
2022/08/12 05:56:22;;;;;;;;;22.00;18.67;;;;;-145.45;100.00;57426.63;5082888;27;46292;-73
2022/08/12 05:58:48;;;;;;;;;17.67;16.33;;;;;-145.45;100.00;57426.63;5093934;27;45209;-73
2022/08/12 06:01:13;;;;;;;;;18.00;16.00;;;;;-145.45;100.00;57426.63;5084169;27;45124;-73
2022/08/12 06:03:39;;;;;;;;;19.00;17.67;;;;;-145.45;100.00;57426.63;5089229;27;45510;-73
2022/08/12 06:06:05;;;;;;;;;19.33;17.00;;;;;-145.45;100.00;57426.63;5091722;27;46397;-73
2022/08/12 06:08:34;;;;;;;;;16.67;16.00;;;;;-145.45;100.00;57426.63;5079072;27;45514;-73
2022/08/12 06:11:01;;;;;;;;;17.00;17.00;;;;;-145.45;100.00;57426.63;5084240;27;45392;-73
2022/08/12 06:13:26;;;;;;;;;21.33;18.00;;;;;-145.45;100.00;57426.63;5095695;27;45428;-73
2022/08/12 06:15:52;;;;;;;;;17.00;15.67;;;;;-145.45;100.00;57426.63;5079845;27;45422;-73
2022/08/12 06:18:18;;;;;;;;;19.33;17.33;;;;;-145.45;100.00;57426.63;5084858;27;45232;-73
2022/08/12 06:20:48;;;;;;;;;15.33;14.67;;;;;-145.45;100.00;57426.63;5090157;27;45292;-73
2022/08/12 06:23:14;;;;;;;;;19.33;18.00;;;;;-145.45;100.00;57426.63;5081717;27;45424;-73
2022/08/12 06:25:40;;;;;;;;;21.67;16.00;;;;;-145.45;100.00;57426.63;5085489;27;46098;-73
2022/08/12 06:28:16;;;;;;;;;17.33;16.00;;;;;-145.45;100.00;57426.63;5079935;27;45284;-73
2022/08/12 06:30:43;;;;;;;;;18.67;18.00;;;;;-145.45;100.00;57426.63;5096824;27;45386;-73
2022/08/12 06:33:09;;;;;;;;;17.67;15.00;;;;;-145.45;100.00;57426.63;5084936;27;45554;-73
2022/08/12 06:35:34;;;;;;;;;20.33;18.33;;;;;-145.45;100.00;57426.63;5095328;27;47029;-74
2022/08/12 06:38:02;;;;;;;;;19.67;18.00;;;;;-145.45;100.00;57426.63;5094620;27;45410;-73
2022/08/12 06:43:12;;;;;;;;;19.67;16.00;;;;;-145.45;100.00;57426.63;5088746;27;45319;-74
2022/08/12 06:45:43;;;;;;;;;14.00;13.00;;;;;-145.45;100.00;57426.63;5084422;27;45593;-75
2022/08/12 06:48:10;;;;;;;;;10.00;10.00;;;;;-145.45;100.00;57426.63;5086148;27;45322;-74
2022/08/12 06:50:35;;;;;;;;;18.00;16.67;;;;;-145.45;100.00;57426.63;5089711;27;45297;-73
2022/08/12 06:53:03;;;;;;;;;19.67;16.33;;;;;-145.45;100.00;57426.63;5082488;27;45302;-74
2022/08/12 06:55:29;;;;;;;;;18.00;15.33;;;;;-145.45;100.00;57426.63;5088129;27;46162;-73
2022/08/12 06:57:59;;;;;;;;;14.67;13.33;;;;;-145.45;100.00;57426.63;5080321;27;45258;-74
2022/08/12 07:00:26;;;;;;;;;14.33;14.33;;;;;-145.45;100.00;57426.63;5086426;27;45309;-74
2022/08/12 07:02:55;;;;;;;;;16.00;14.00;;;;;-145.45;100.00;57426.63;5080560;27;45277;-73
2022/08/12 07:05:25;;;;;;;;;16.00;14.67;;;;;-145.45;100.00;57426.63;5091871;27;46175;-73
2022/08/12 07:07:54;;;;;;;;;17.00;15.00;;;;;-145.45;100.00;57426.63;5098465;27;45486;-72
2022/08/12 07:10:23;;;;;;;;;17.67;15.67;;;;;-145.45;100.00;57426.63;5085099;27;45388;-72
2022/08/12 07:12:53;;;;;;;;;16.00;15.00;;;;;-145.45;100.00;57426.63;5081708;27;45209;-72
2022/08/12 07:15:25;;;;;;;;;14.33;13.00;;;;;-145.45;100.00;57426.63;5069583;27;48224;-72
2022/08/12 07:17:59;;;;;;;;;14.33;12.00;;;;;-145.45;100.00;57426.63;5080699;27;45438;-72
2022/08/12 07:20:30;;;;;;;;;16.00;14.00;;;;;-145.45;100.00;57426.63;5090804;27;45352;-73
2022/08/12 07:22:57;;;;;;;;;15.67;13.67;;;;;-145.45;100.00;57426.63;5093511;27;45319;-73
2022/08/12 07:25:33;;;;;;;;;15.67;14.33;;;;;-145.45;100.00;57426.63;5089099;27;45248;-74
2022/08/12 07:28:04;;;;;;;;;14.33;12.33;;;;;-145.45;100.00;57426.63;5085900;27;45347;-72
2022/08/12 07:30:36;;;;;;;;;15.00;14.33;;;;;-145.45;100.00;57426.63;5095531;27;45363;-73
2022/08/12 07:33:03;;;;;;;;;11.67;11.00;;;;;-145.45;100.00;57426.63;5073588;27;45463;-74
2022/08/12 07:35:31;;;;;;;;;12.33;11.67;;;;;-145.45;100.00;57426.63;5089416;27;45699;-74
2022/08/12 07:37:58;;;;;;;;;13.00;12.00;;;;;-145.45;100.00;57426.63;5079727;27;45590;-73
2022/08/12 07:40:24;;;;;;;;;12.33;12.00;;;;;-145.45;100.00;57426.63;5075731;27;45251;-73
2022/08/12 07:42:51;;;;;;;;;12.50;12.50;;;;;-145.45;100.00;57426.63;5081954;27;45376;-74
2022/08/12 07:45:16;;;;;;;;;11.33;11.33;;;;;-145.45;100.00;57426.63;5076775;27;47368;-75
2022/08/12 07:47:42;;;;;;;;;15.25;12.75;;;;;-145.45;100.00;57426.63;5077802;27;45481;-74
2022/08/12 07:50:14;;;;;;;;;11.75;11.75;;;;;-145.45;100.00;57426.63;5086139;27;45540;-75
2022/08/12 07:52:42;;;;;;;;;13.25;12.75;;;;;-145.45;100.00;57426.63;5083088;27;45357;-75
2022/08/12 07:55:08;;;;;;;;;10.25;10.25;;;;;-145.45;100.00;57426.63;5085908;27;46262;-74
2022/08/12 07:57:46;;;;;;;;;10.00;10.00;;;;;-145.45;100.00;57426.63;5078025;27;45269;-75
2022/08/12 08:00:13;;;;;;;;;12.50;10.50;;;;;-145.45;100.00;57426.63;5084899;27;45431;-74
2022/08/12 08:02:38;;;;;;;;;12.00;11.00;;;;;-145.45;100.00;57426.63;5078178;27;46961;-75
2022/08/12 08:05:04;;;;;;;;;13.75;11.25;;;;;-145.45;100.00;57426.63;5085356;27;46010;-75
2022/08/12 08:07:30;;;;;;;;;11.75;10.50;;;;;-145.45;100.00;57426.63;5078216;27;45407;-74
2022/08/12 08:09:57;;;;;;;;;10.25;10.25;;;;;-145.45;100.00;57426.63;5087496;27;45350;-72
2022/08/12 08:15:09;;;;;;;;;9.50;9.00;;;;;-145.45;100.00;57426.63;5093794;27;45827;-71
2022/08/12 08:17:36;;;;;;;;;13.00;10.00;;;;;-145.45;100.00;57426.63;5073136;28;45382;-71
2022/08/12 08:20:01;;;;;;;;;11.00;9.25;;;;;-145.45;100.00;57426.63;5089568;27;45392;-72
2022/08/12 08:22:27;;;;;;;;;10.25;10.25;;;;;-145.45;100.00;57426.63;5082329;27;45138;-71
2022/08/12 08:24:56;;;;;;;;;10.00;10.00;;;;;-145.45;100.00;57426.63;5071495;27;48603;-71
2022/08/12 08:27:22;;;;;;;;;8.20;5.40;;;;;-145.45;100.00;57426.63;5081827;27;45380;-72
2022/08/12 08:29:48;;;;;;;;;10.75;8.75;;;;;-145.45;100.00;57426.63;5092417;27;45339;-72
2022/08/12 08:32:13;;;;;;;;;12.00;9.50;;;;;-145.45;100.00;57426.63;5098482;27;45437;-72
2022/08/12 08:34:40;;;;;;;;;9.50;9.50;;;;;-145.45;100.00;57426.63;5076415;28;45492;-72
2022/08/12 08:37:06;;;;;;;;;7.60;7.60;;;;;-145.45;100.00;57426.63;5095808;27;45437;-72
2022/08/12 08:39:32;;;;;;;;;9.25;8.25;;;;;-145.45;100.00;57426.63;5089801;27;45403;-72
2022/08/12 08:44:44;;;;;;;;;9.20;8.20;;;;;-145.45;100.00;57426.63;5089665;27;45460;-74
2022/08/12 08:47:11;;;;;;;;;8.80;8.80;;;;;-145.45;100.00;57426.63;5076591;27;45370;-73
2022/08/12 08:49:38;;;;;;;;;9.20;8.40;;;;;-145.45;100.00;57426.63;5073545;28;45427;-73
2022/08/12 08:52:06;;;;;;;;;8.50;8.25;;;;;-145.45;100.00;57426.63;5068935;27;45651;-74
2022/08/12 08:54:32;;;;;;;;;9.40;8.00;;;;;-145.45;100.00;57426.63;5073874;27;48279;-73
2022/08/12 08:57:02;;;;;;;;;7.80;7.00;;;;;-145.45;100.00;57426.63;5081628;27;45289;-73
2022/08/12 08:59:28;;;;;;;;;12.40;9.20;;;;;-145.45;100.00;57426.63;5073856;27;45468;-73
2022/08/12 09:01:54;;;;;;;;;7.50;7.50;;;;;-145.45;100.00;57426.63;5083188;27;45570;-73
2022/08/12 09:04:19;;;;;;;;;9.75;8.75;;;;;-145.45;100.00;57426.63;5083780;27;46549;-74
2022/08/12 09:06:46;;;;;;;;;7.00;7.00;;;;;-145.45;100.00;57426.63;5094040;27;45471;-72
2022/08/12 09:09:13;;;;;;;;;8.00;7.00;;;;;-145.45;100.00;57426.63;5088693;27;45244;-72
2022/08/12 09:14:22;;;;;;;;;8.80;8.00;;;;;-145.45;100.00;57426.63;5088342;27;45469;-72
2022/08/12 09:16:49;;;;;;;;;8.75;8.75;;;;;-145.45;100.00;57426.63;5091983;27;45280;-73
2022/08/12 09:19:17;;;;;;;;;7.20;7.20;;;;;-145.45;100.00;57426.63;5078799;27;45505;-72
2022/08/12 09:21:45;;;;;;;;;6.80;6.80;;;;;-145.45;100.00;57426.63;5077491;27;46637;-72
2022/08/12 09:24:11;;;;;;;;;8.60;7.60;;;;;-145.45;100.00;57426.63;5090310;27;45659;-73
2022/08/12 09:26:37;;;;;;;;;8.25;7.25;;;;;-145.45;100.00;57426.63;5082078;27;45207;-73
2022/08/12 09:29:03;;;;;;;;;7.00;7.00;;;;;-145.45;100.00;57426.63;5076470;27;45329;-73
2022/08/12 09:31:29;;;;;;;;;8.75;7.25;;;;;-145.45;100.00;57426.63;5082190;27;45517;-74
2022/08/12 09:33:54;;;;;;;;;8.20;8.20;;;;;-145.45;100.00;57426.63;5088427;27;46064;-73
2022/08/12 09:36:21;;;;;;;;;6.75;6.75;;;;;-145.45;100.00;57426.63;5084557;27;45330;-72
2022/08/12 09:38:46;;;;;;;;;8.20;6.60;;;;;-145.45;100.00;57426.63;5087229;27;45347;-73
2022/08/12 09:41:14;;;;;;;;;10.50;9.25;;;;;-145.45;100.00;57426.63;5089293;27;45401;-73
2022/08/12 09:46:30;;;;;;;;;6.40;6.40;;;;;-145.45;100.00;57426.63;5086416;27;45271;-73
2022/08/12 09:48:57;;;;;;;;;6.40;4.80;;;;;-145.45;100.00;57426.63;5074077;27;45300;-74
2022/08/12 09:51:23;;;;;;;;;7.20;7.00;;;;;-145.45;100.00;57426.63;5084608;27;46139;-73
2022/08/12 09:53:49;;;;;;;;;5.75;5.75;;;;;-145.45;100.00;57426.63;5088349;27;45685;-73
2022/08/12 09:56:17;;;;;;;;;11.80;7.60;;;;;-145.45;100.00;57426.63;5077006;27;45536;-73
2022/08/12 09:58:45;;;;;;;;;4.60;4.60;;;;;-145.45;100.00;57426.63;5074568;27;45427;-73
2022/08/12 10:01:12;;;;;;;;;8.40;8.40;;;;;-145.45;100.00;57426.63;5082280;27;45380;-73
2022/08/12 10:03:42;;;;;;;;;7.20;7.20;;;;;-145.45;100.00;57426.63;5083879;27;46782;-74
2022/08/12 10:06:08;;;;;;;;;5.00;5.00;;;;;-145.45;100.00;57426.63;5077104;27;45376;-73
2022/08/12 10:08:36;;;;;;;;;7.60;7.60;;;;;-145.45;100.00;57426.63;5089705;27;45537;-72
2022/08/12 10:13:51;;;;;;;;;7.80;6.00;;;;;-145.45;100.00;57426.63;5082502;27;46724;-72
2022/08/12 10:16:27;;;;;;;;;6.00;5.00;;;;;-145.45;100.00;57426.63;5092546;27;45166;-72
2022/08/12 10:19:01;;;;;;;;;7.60;6.00;;;;;-145.45;100.00;57426.63;5092497;27;45221;-73
2022/08/12 10:21:39;;;;;;;;;8.00;7.00;;;;;-145.45;100.00;57426.63;5092846;27;45481;-72
2022/08/12 10:24:09;;;;;;;;;5.80;4.40;;;;;-145.45;100.00;57426.63;5083937;27;45514;-73
2022/08/12 10:32:19;;;;;;;;;5.80;5.40;;;;;-145.45;100.00;57426.63;5097278;27;45390;-72
2022/08/12 10:34:45;;;;;;;;;4.00;4.00;;;;;-145.45;100.00;57426.63;5093260;27;46763;-74
2022/08/12 10:37:11;;;;;;;;;6.40;6.40;;;;;-145.45;100.00;57426.63;5078922;27;45662;-75
2022/08/12 10:39:38;;;;;;;;;6.75;6.00;;;;;-145.45;100.00;57426.63;5090243;27;45462;-75
2022/08/12 10:45:02;;;;;;;;;5.20;5.20;;;;;-145.45;100.00;57426.63;5089743;27;46707;-75
2022/08/12 10:47:29;;;;;;;;;5.60;5.20;;;;;-145.45;100.00;57426.63;5083220;27;45283;-75
2022/08/12 10:49:55;;;;;;;;;5.20;3.80;;;;;-145.45;100.00;57426.63;5094985;27;45621;-74
2022/08/12 10:52:24;;;;;;;;;6.75;5.25;;;;;-145.45;100.00;57426.63;5093483;27;45989;-75
2022/08/12 10:54:50;;;;;;;;;5.80;5.80;;;;;-145.45;100.00;57426.63;5090757;27;45431;-74
2022/08/12 10:57:16;;;;;;;;;9.00;8.00;;;;;-145.45;100.00;57426.63;5089155;27;45281;-74
2022/08/12 10:59:42;;;;;;;;;6.00;6.00;;;;;-145.45;100.00;57426.63;5084022;27;45277;-74
2022/08/12 11:02:12;;;;;;;;;5.00;4.50;;;;;-145.45;100.00;57426.63;5079329;27;45340;-75
2022/08/12 11:04:39;;;;;;;;;5.40;5.40;;;;;-145.45;100.00;57426.63;5076258;27;47202;-74
2022/08/12 11:07:05;;;;;;;;;6.40;5.20;;;;;-145.45;100.00;57426.63;5092578;27;45348;-75
2022/08/12 11:09:31;;;;;;;;;6.00;6.00;;;;;-145.45;100.00;57426.63;5085552;27;45280;-75
2022/08/12 11:12:05;;;;;;;;;5.40;5.40;;;;;-145.45;100.00;57426.63;5078610;27;46112;-76
2022/08/12 11:14:41;;;;;;;;;5.60;5.60;;;;;-145.45;100.00;57426.63;5087138;27;45465;-75
2022/08/12 11:17:11;;;;;;;;;3.60;3.60;;;;;-145.45;100.00;57426.63;5092753;27;45242;-75
2022/08/12 11:19:38;;;;;;;;;7.40;7.40;;;;;-145.45;100.00;57426.63;5087569;27;45561;-74
2022/08/12 11:22:05;;;;;;;;;6.20;6.20;;;;;-145.45;100.00;57426.63;5077961;27;45475;-74
2022/08/12 11:24:30;;;;;;;;;5.40;5.40;;;;;-145.45;100.00;57426.63;5091165;27;47526;-76
2022/08/12 11:26:57;;;;;;;;;7.00;7.00;;;;;-145.45;100.00;57426.63;5086135;27;45399;-75
2022/08/12 11:29:25;;;;;;;;;6.60;6.40;;;;;-145.45;100.00;57426.63;5093211;27;45261;-74
2022/08/12 11:31:51;;;;;;;;;7.20;7.20;;;;;-145.45;100.00;57426.63;5078928;28;45234;-74
2022/08/12 11:34:17;;;;;;;;;7.00;7.00;;;;;-145.45;100.00;57426.63;5089229;27;46090;-74
2022/08/12 11:36:54;;;;;;;;;6.20;6.20;;;;;-145.45;100.00;57426.63;5094242;27;45458;-72
2022/08/12 11:39:20;;;;;;;;;7.20;6.20;;;;;-145.45;100.00;57426.63;5091832;27;45273;-73
2022/08/12 11:41:46;;;;;;;;;5.00;5.00;;;;;-145.45;100.00;57426.63;5085669;27;45292;-73
2022/08/12 11:44:12;;;;;;;;;6.00;6.00;;;;;-145.45;100.00;57426.63;5089462;27;46050;-73
2022/08/12 11:46:38;;;;;;;;;6.00;6.00;;;;;-145.45;100.00;57426.63;5078755;27;45269;-73
2022/08/12 11:49:04;;;;;;;;;4.00;4.00;;;;;-145.45;100.00;57426.63;5086745;27;45416;-73
2022/08/12 11:51:31;;;;;;;;;8.00;8.00;;;;;-145.45;100.00;57426.63;5092198;27;45387;-73
2022/08/12 11:53:57;;;;;;;;;4.40;4.40;;;;;-145.45;100.00;57426.63;5095037;27;46259;-73
2022/08/12 11:56:22;;;;;;;;;5.25;4.75;;;;;-145.45;100.00;57426.63;5092833;27;45468;-74
2022/08/12 11:58:48;;;;;;;;;5.00;5.00;;;;;-145.45;100.00;57426.63;5088338;27;45391;-75
2022/08/12 12:01:13;;;;;;;;;5.00;5.00;;;;;-145.45;100.00;57426.63;5084602;27;45443;-74
2022/08/12 12:03:39;;;;;;;;;5.75;5.75;;;;;-145.45;100.00;57426.63;5086728;27;45500;-74
2022/08/12 12:06:04;;;;;;;;;8.00;6.00;;;;;-145.45;100.00;57426.63;5082746;27;45266;-72
2022/08/12 12:08:30;;;;;;;;;5.50;5.50;;;;;-145.45;100.00;57426.63;5100081;27;45346;-73
2022/08/12 12:10:55;;;;;;;;;6.75;6.00;;;;;-145.45;100.00;57426.63;5084312;27;45458;-74
2022/08/12 12:13:21;;;;;;;;;5.75;4.75;;;;;-145.45;100.00;57426.63;5084361;27;46439;-72
2022/08/12 12:15:46;;;;;;;;;6.25;6.25;;;;;-145.45;100.00;57426.63;5085425;27;45526;-73
2022/08/12 12:18:38;;;;;;;;;7.25;7.25;;;;;-145.45;100.00;57426.63;5083246;27;45249;-73
2022/08/12 12:21:06;;;;;;;;;5.20;5.20;;;;;-145.45;100.00;57426.63;5079589;27;45582;-72
2022/08/12 12:23:33;;;;;;;;;4.20;4.20;;;;;-145.45;100.00;57426.63;5094005;27;46138;-72
2022/08/12 12:25:59;;;;;;;;;6.20;4.80;;;;;-145.45;100.00;57426.63;5077609;27;46484;-72
2022/08/12 12:28:24;;;;;;;;;5.80;5.80;;;;;-145.45;100.00;57426.63;5084819;27;45489;-72
2022/08/12 12:30:50;;;;;;;;;8.00;8.00;;;;;-145.45;100.00;57426.63;5084142;27;45601;-72
2022/08/12 12:33:15;;;;;;;;;5.50;4.00;;;;;-145.45;100.00;57426.63;5083197;27;45433;-73
2022/08/12 12:35:40;;;;;;;;;7.25;7.25;;;;;-145.45;100.00;57426.63;5092145;27;45417;-73
2022/08/12 12:38:08;;;;;;;;;7.00;5.00;;;;;-145.45;100.00;57426.63;5082817;27;45887;-73
2022/08/12 12:40:36;;;;;;;;;4.60;4.60;;;;;-145.45;100.00;57426.63;5088628;27;45509;-73
2022/08/12 12:43:01;;;;;;;;;6.00;6.00;;;;;-145.45;100.00;57426.63;5083252;27;45667;-73
2022/08/12 12:45:28;;;;;;;;;4.75;4.50;;;;;-145.45;100.00;57426.63;5084967;27;45337;-72
2022/08/12 12:47:57;;;;;;;;;5.60;5.60;;;;;-145.45;100.00;57426.63;5089965;27;45336;-74
2022/08/12 12:50:24;;;;;;;;;6.20;6.20;;;;;-145.45;100.00;57426.63;5090641;27;45326;-74
2022/08/12 12:52:50;;;;;;;;;6.60;6.60;;;;;-145.45;100.00;57426.63;5094803;27;46260;-73
2022/08/12 12:55:16;;;;;;;;;6.60;6.60;;;;;-145.45;100.00;57426.63;5096026;27;45439;-73